Time,TemperatureF,DewpointF,PressureIn,WindDirection,WindDirectionDegrees,WindSpeedMPH,WindSpeedGustMPH,Humidity,HourlyPrecipIn,Conditions,Clouds,dailyrainin,SoftwareType,DateUTC
2013-10-31 00:00:00,37.0,34.3,30.08,ESE,112,0.9,1.7,90,0.00,SCT,,0.00,WeatherDisplay:10.37,2013-10-31 04:00:00,
2013-10-31 00:01:00,37.0,34.3,30.08,ESE,112,1.6,1.7,90,0.00,SCT,,0.00,WeatherDisplay:10.37,2013-10-31 04:01:00,
2013-10-31 00:02:00,37.0,34.3,30.08,ESE,112,1.2,2.2,90,0.00,SCT,,0.00,WeatherDisplay:10.37,2013-10-31 04:02:00,
2013-10-31 00:03:00,37.4,34.7,30.07,ESE,112,1.9,2.3,90,0.00,SCT,,0.00,WeatherDisplay:10.37,2013-10-31 04:03:00,
2013-10-31 00:04:00,37.4,34.7,30.07,ESE,112,1.8,2.3,90,0.00,SCT,,0.00,WeatherDisplay:10.37,2013-10-31 04:04:00,
2013-10-31 00:09:00,37.9,35.8,30.07,ESE,112,2.0,2.3,92,0.00,SCT,,0.00,WeatherDisplay:10.37,2013-10-31 04:09:00,
2013-10-31 00:14:00,39.0,36.6,30.07,ESE,112,4.2,4.7,91,0.00,SCT,,0.00,WeatherDisplay:10.37,2013-10-31 04:14:00,
2013-10-31 00:19:00,40.3,37.0,30.06,SE,135,3.0,3.5,88,0.00,SCT,,0.00,WeatherDisplay:10.37,2013-10-31 04:19:00,
2013-10-31 00:24:00,41.4,37.2,30.06,SSE,158,3.7,4.6,85,0.00,SCT,,0.00,WeatherDisplay:10.37,2013-10-31 04:24:00,
2013-10-31 00:29:00,41.9,37.4,30.05,SE,135,3.8,4.6,84,0.00,SCT,,0.00,WeatherDisplay:10.37,2013-10-31 04:29:00,
2013-10-31 00:34:00,41.9,37.4,30.05,ESE,112,3.0,3.7,84,0.00,SCT,,0.00,WeatherDisplay:10.37,2013-10-31 04:34:00,
2013-10-31 00:39:00,41.9,37.4,30.05,ESE,112,2.8,3.2,84,0.00,SCT,,0.00,WeatherDisplay:10.37,2013-10-31 04:39:00,
2013-10-31 00:44:00,41.9,37.1,30.05,South,180,3.2,4.6,83,0.00,SCT,,0.00,WeatherDisplay:10.37,2013-10-31 04:44:00,
2013-10-31 00:49:00,41.7,36.9,30.05,SE,135,1.4,2.3,83,0.00,SCT,,0.00,WeatherDisplay:10.37,2013-10-31 04:49:00,
2013-10-31 00:54:00,41.5,36.7,30.04,ESE,112,1.7,2.3,83,0.00,SCT,,0.00,WeatherDisplay:10.37,2013-10-31 04:54:00,
2013-10-31 00:59:00,41.5,37.0,30.04,SSE,158,1.9,2.2,84,0.00,SCT,,0.00,WeatherDisplay:10.37,2013-10-31 04:59:00,
2013-10-31 01:04:00,41.5,37.0,30.04,SE,135,2.0,2.3,84,0.00,BKN,,0.00,WeatherDisplay:10.37,2013-10-31 05:04:00,
2013-10-31 01:09:00,41.7,37.2,30.04,ESE,112,2.3,3.5,84,0.00,BKN,,0.00,WeatherDisplay:10.37,2013-10-31 05:09:00,
2013-10-31 01:14:00,41.7,37.2,30.03,ESE,112,1.9,2.3,84,0.00,BKN,,0.00,WeatherDisplay:10.37,2013-10-31 05:14:00,
2013-10-31 01:19:00,42.1,37.6,30.03,South,180,1.3,2.3,84,0.00,BKN,,0.00,WeatherDisplay:10.37,2013-10-31 05:19:00,
2013-10-31 01:24:00,42.4,37.6,30.03,SSE,158,2.5,2.7,83,0.00,BKN,,0.00,WeatherDisplay:10.37,2013-10-31 05:24:00,
2013-10-31 01:29:00,43.3,37.9,30.03,SSE,158,3.5,4.6,81,0.00,BKN,,0.00,WeatherDisplay:10.37,2013-10-31 05:29:00,
2013-10-31 01:34:00,43.9,38.1,30.03,South,180,2.9,4.6,80,0.00,BKN,,0.00,WeatherDisplay:10.37,2013-10-31 05:34:00,
2013-10-31 01:39:00,43.9,38.1,30.04,SE,135,3.4,4.6,80,0.00,BKN,,0.00,WeatherDisplay:10.37,2013-10-31 05:39:00,
2013-10-31 01:44:00,44.1,38.0,30.04,SE,135,2.7,3.5,79,0.00,BKN,,0.00,WeatherDisplay:10.37,2013-10-31 05:44:00,
2013-10-31 01:49:00,44.2,38.1,30.04,SSE,158,2.8,3.5,79,0.00,BKN,,0.00,WeatherDisplay:10.37,2013-10-31 05:49:00,
2013-10-31 01:54:00,44.4,38.3,30.04,SE,135,3.3,3.7,79,0.00,BKN,,0.00,WeatherDisplay:10.37,2013-10-31 05:54:00,
2013-10-31 01:59:00,44.4,38.3,30.04,SSE,158,2.5,3.5,79,0.00,BKN,,0.00,WeatherDisplay:10.37,2013-10-31 05:59:00,
2013-10-31 02:04:00,44.4,38.3,30.02,SSE,158,2.1,2.3,79,0.00,BKN,,0.00,WeatherDisplay:10.37,2013-10-31 06:04:00,
2013-10-31 02:09:00,44.8,38.4,30.02,SE,135,4.3,4.6,78,0.00,BKN,,0.00,WeatherDisplay:10.37,2013-10-31 06:09:00,
2013-10-31 02:14:00,45.5,39.0,30.02,SE,135,3.9,3.9,78,0.00,BKN,,0.00,WeatherDisplay:10.37,2013-10-31 06:14:00,
2013-10-31 02:19:00,46.0,39.2,30.02,South,180,4.5,5.8,77,0.00,BKN,,0.00,WeatherDisplay:10.37,2013-10-31 06:19:00,
2013-10-31 02:24:00,46.2,39.4,30.02,SSE,158,5.0,5.0,77,0.00,BKN,,0.00,WeatherDisplay:10.37,2013-10-31 06:24:00,
2013-10-31 02:29:00,46.4,39.6,30.00,SSE,158,4.2,4.6,77,0.00,BKN,,0.00,WeatherDisplay:10.37,2013-10-31 06:29:00,
2013-10-31 02:34:00,46.4,39.6,30.00,SE,135,4.0,4.2,77,0.00,BKN,,0.00,WeatherDisplay:10.37,2013-10-31 06:34:00,
2013-10-31 02:39:00,46.4,39.6,30.00,SSE,158,3.0,3.5,77,0.00,BKN,,0.00,WeatherDisplay:10.37,2013-10-31 06:39:00,
2013-10-31 02:44:00,46.6,39.8,30.00,SSE,158,3.5,4.6,77,0.00,BKN,,0.00,WeatherDisplay:10.37,2013-10-31 06:44:00,
2013-10-31 02:49:00,46.6,39.8,30.00,SSE,158,4.1,4.2,77,0.00,BKN,,0.00,WeatherDisplay:10.37,2013-10-31 06:49:00,
2013-10-31 02:54:00,46.6,39.8,29.99,SE,135,3.1,4.6,77,0.00,BKN,,0.00,WeatherDisplay:10.37,2013-10-31 06:54:00,
2013-10-31 02:59:00,46.6,40.1,29.99,South,180,2.9,4.6,78,0.00,BKN,,0.00,WeatherDisplay:10.37,2013-10-31 06:59:00,
2013-10-31 03:04:00,46.6,40.1,29.99,SSE,158,2.7,3.2,78,0.00,BKN,,0.00,WeatherDisplay:10.37,2013-10-31 07:04:00,
2013-10-31 03:09:00,46.8,40.3,29.99,SSE,158,3.4,4.6,78,0.00,BKN,,0.00,WeatherDisplay:10.37,2013-10-31 07:09:00,
2013-10-31 03:14:00,47.1,40.9,29.99,SSE,158,3.1,4.2,79,0.00,OVC,,0.00,WeatherDisplay:10.37,2013-10-31 07:14:00,
2013-10-31 03:19:00,47.7,41.5,29.97,SSE,158,3.9,5.8,79,0.00,OVC,,0.00,WeatherDisplay:10.37,2013-10-31 07:19:00,
2013-10-31 03:24:00,48.0,41.8,29.97,SE,135,4.1,5.8,79,0.00,OVC,,0.00,WeatherDisplay:10.37,2013-10-31 07:24:00,
2013-10-31 03:29:00,48.4,41.9,29.96,SE,135,4.9,5.8,78,0.00,OVC,,0.00,WeatherDisplay:10.37,2013-10-31 07:29:00,
2013-10-31 03:34:00,48.6,42.0,29.96,SSE,158,4.3,5.8,78,0.00,OVC,,0.00,WeatherDisplay:10.37,2013-10-31 07:34:00,
2013-10-31 03:39:00,48.6,42.0,29.95,SSE,158,2.7,4.6,78,0.00,OVC,,0.00,WeatherDisplay:10.37,2013-10-31 07:39:00,
2013-10-31 03:44:00,48.6,42.0,29.95,ESE,112,3.2,4.6,78,0.00,OVC,,0.00,WeatherDisplay:10.37,2013-10-31 07:44:00,
2013-10-31 03:49:00,48.7,42.1,29.95,South,180,4.1,5.8,78,0.00,OVC,,0.00,WeatherDisplay:10.37,2013-10-31 07:49:00,
2013-10-31 03:54:00,48.7,42.1,29.95,SSE,158,3.4,4.6,78,0.00,OVC,,0.00,WeatherDisplay:10.37,2013-10-31 07:54:00,
2013-10-31 03:59:00,48.7,42.1,29.95,ESE,112,2.8,3.5,78,0.00,OVC,,0.00,WeatherDisplay:10.37,2013-10-31 07:59:00,
2013-10-31 04:04:00,48.7,42.5,29.95,SSE,158,1.9,2.3,79,0.00,OVC,,0.00,WeatherDisplay:10.37,2013-10-31 08:04:00,
2013-10-31 04:09:00,48.7,42.5,29.95,SSE,158,2.7,2.7,79,0.00,OVC,,0.00,WeatherDisplay:10.37,2013-10-31 08:09:00,
2013-10-31 04:14:00,48.7,42.5,29.95,SSE,158,2.7,3.2,79,0.00,OVC,,0.00,WeatherDisplay:10.37,2013-10-31 08:14:00,
2013-10-31 04:19:00,49.1,42.9,29.94,SSE,158,3.8,4.6,79,0.00,OVC,,0.00,WeatherDisplay:10.37,2013-10-31 08:19:00,
2013-10-31 04:24:00,49.3,43.1,29.94,SSE,158,3.9,4.6,79,0.00,OVC,,0.00,WeatherDisplay:10.37,2013-10-31 08:24:00,
2013-10-31 04:29:00,49.3,43.1,29.93,SSW,202,2.3,3.5,79,0.00,OVC,,0.00,WeatherDisplay:10.37,2013-10-31 08:29:00,
2013-10-31 04:34:00,49.3,43.4,29.93,South,180,0.0,0.0,80,0.00,OVC,,0.00,WeatherDisplay:10.37,2013-10-31 08:34:00,
2013-10-31 04:39:00,49.3,43.4,29.93,East,90,0.4,1.1,80,0.00,OVC,,0.00,WeatherDisplay:10.37,2013-10-31 08:39:00,
2013-10-31 04:44:00,49.3,43.4,29.93,East,90,0.8,2.2,80,0.00,OVC,,0.00,WeatherDisplay:10.37,2013-10-31 08:44:00,
2013-10-31 04:49:00,49.3,43.4,29.93,East,90,0.0,1.1,80,0.00,OVC,,0.00,WeatherDisplay:10.37,2013-10-31 08:49:00,
2013-10-31 04:54:00,49.3,43.7,29.93,ENE,68,1.8,1.8,81,0.00,OVC,,0.00,WeatherDisplay:10.37,2013-10-31 08:54:00,
2013-10-31 04:59:00,49.3,43.7,29.93,SE,135,2.3,2.3,81,0.00,OVC,,0.00,WeatherDisplay:10.37,2013-10-31 08:59:00,
2013-10-31 05:04:00,49.5,44.2,29.92,East,90,1.9,2.3,82,0.00,OVC,,0.00,WeatherDisplay:10.37,2013-10-31 09:04:00,
2013-10-31 05:09:00,49.6,44.3,29.92,East,90,1.9,1.9,82,0.00,OVC,,0.00,WeatherDisplay:10.37,2013-10-31 09:09:00,
2013-10-31 05:14:00,49.8,44.5,29.91,East,90,0.8,1.1,82,0.00,OVC,,0.00,WeatherDisplay:10.37,2013-10-31 09:14:00,
2013-10-31 05:19:00,50.4,45.4,29.91,ESE,112,2.3,2.7,83,0.00,OVC,,0.00,WeatherDisplay:10.37,2013-10-31 09:19:00,
2013-10-31 05:24:00,50.4,45.4,29.91,ENE,68,0.0,1.1,83,0.00,OVC,,0.00,WeatherDisplay:10.37,2013-10-31 09:24:00,
2013-10-31 05:29:00,50.5,45.8,29.90,WNW,292,0.0,0.0,84,0.00,OVC,,0.00,WeatherDisplay:10.37,2013-10-31 09:29:00,
2013-10-31 05:34:00,50.5,46.2,29.90,NNW,338,0.0,0.0,85,0.00,OVC,,0.00,WeatherDisplay:10.37,2013-10-31 09:34:00,
2013-10-31 05:39:00,50.5,46.5,29.90,ESE,112,1.4,1.7,86,0.00,OVC,,0.00,WeatherDisplay:10.37,2013-10-31 09:39:00,
2013-10-31 05:44:00,50.5,46.8,29.90,NNE,22,0.0,0.0,87,0.00,OVC,,0.00,WeatherDisplay:10.37,2013-10-31 09:44:00,
2013-10-31 05:49:00,50.5,47.1,29.90,ESE,112,0.0,0.0,88,0.00,OVC,,0.00,WeatherDisplay:10.37,2013-10-31 09:49:00,
2013-10-31 05:54:00,50.5,47.1,29.91,WNW,292,0.0,0.0,88,0.00,OVC,,0.00,WeatherDisplay:10.37,2013-10-31 09:54:00,
2013-10-31 05:59:00,50.7,47.6,29.91,East,90,0.6,1.1,89,0.01,RA,,0.01,WeatherDisplay:10.37,2013-10-31 09:59:00,
2013-10-31 06:04:00,51.1,48.6,29.90,ESE,112,0.6,0.0,91,0.02,RA,,0.02,WeatherDisplay:10.37,2013-10-31 10:04:00,
2013-10-31 06:09:00,52.2,50.8,29.90,ESE,112,2.2,2.3,95,0.03,RA,,0.04,WeatherDisplay:10.37,2013-10-31 10:09:00,
2013-10-31 06:14:00,52.7,51.3,29.90,South,180,2.1,2.3,95,0.05,RA,,0.05,WeatherDisplay:10.37,2013-10-31 10:14:00,
2013-10-31 06:19:00,53.1,51.7,29.89,SSE,158,3.5,4.7,95,0.07,RA,,0.08,WeatherDisplay:10.37,2013-10-31 10:19:00,
2013-10-31 06:24:00,53.4,52.0,29.89,South,180,2.8,3.5,95,0.10,-RA,,0.10,WeatherDisplay:10.37,2013-10-31 10:24:00,
2013-10-31 06:29:00,53.4,52.0,29.89,South,180,2.7,3.2,95,0.12,-RA,,0.12,WeatherDisplay:10.37,2013-10-31 10:29:00,
2013-10-31 06:34:00,53.2,51.8,29.89,East,90,1.8,2.3,95,0.16,-RA,,0.17,WeatherDisplay:10.37,2013-10-31 10:34:00,
2013-10-31 06:39:00,53.2,51.8,29.88,West,270,0.6,1.1,95,0.19,-RA,,0.19,WeatherDisplay:10.37,2013-10-31 10:39:00,
2013-10-31 06:44:00,53.1,51.7,29.88,North,360,1.4,1.4,95,0.20,-RA,,0.21,WeatherDisplay:10.37,2013-10-31 10:44:00,
2013-10-31 06:49:00,53.1,51.7,29.88,West,270,0.0,0.0,95,0.22,-RA,,0.23,WeatherDisplay:10.37,2013-10-31 10:49:00,
2013-10-31 06:54:00,53.1,51.7,29.88,SE,135,1.4,2.3,95,0.24,-RA,,0.25,WeatherDisplay:10.37,2013-10-31 10:54:00,
2013-10-31 06:59:00,53.4,52.0,29.88,SE,135,3.0,3.7,95,0.26,-RA,,0.27,WeatherDisplay:10.37,2013-10-31 10:59:00,
2013-10-31 07:04:00,54.3,52.9,29.88,SE,135,3.4,4.7,95,0.27, +RA,,0.29,WeatherDisplay:10.37,2013-10-31 11:04:00,
2013-10-31 07:09:00,55.0,53.6,29.88,SSE,158,3.6,4.6,95,0.27, +RA,,0.31,WeatherDisplay:10.37,2013-10-31 11:09:00,
2013-10-31 07:14:00,55.4,54.0,29.88,SE,135,3.9,4.6,95,0.26, +RA,,0.31,WeatherDisplay:10.37,2013-10-31 11:14:00,
2013-10-31 07:19:00,55.8,54.4,29.87,South,180,4.8,5.8,95,0.26, +RA,,0.33,WeatherDisplay:10.37,2013-10-31 11:19:00,
2013-10-31 07:24:00,56.1,54.7,29.87,SSE,158,4.0,5.8,95,0.25, +RA,,0.35,WeatherDisplay:10.37,2013-10-31 11:24:00,
2013-10-31 07:29:00,56.1,54.7,29.86,SSW,202,3.9,5.8,95,0.24, +RA,,0.36,WeatherDisplay:10.37,2013-10-31 11:29:00,
2013-10-31 07:34:00,56.5,55.1,29.86,ESE,112,3.5,4.7,95,0.22, +RA,,0.39,WeatherDisplay:10.37,2013-10-31 11:34:00,
2013-10-31 07:39:00,56.5,55.1,29.86,South,180,4.4,4.6,95,0.21, +RA,,0.40,WeatherDisplay:10.37,2013-10-31 11:39:00,
2013-10-31 07:44:00,56.5,55.1,29.86,South,180,3.2,4.2,95,0.20, +RA,,0.41,WeatherDisplay:10.37,2013-10-31 11:44:00,
2013-10-31 07:49:00,56.8,55.4,29.86,SW,225,2.8,4.2,95,0.19, +RA,,0.41,WeatherDisplay:10.37,2013-10-31 11:49:00,
2013-10-31 07:54:00,57.0,55.6,29.86,East,90,6.4,10.4,95,0.17, +RA,,0.41,WeatherDisplay:10.37,2013-10-31 11:54:00,
2013-10-31 07:59:00,57.6,56.2,29.86,West,270,4.1,9.2,95,0.14, +RA,,0.41,WeatherDisplay:10.37,2013-10-31 11:59:00,
2013-10-31 08:04:00,57.9,56.5,29.86,South,180,4.8,5.8,95,0.12, +RA,,0.41,WeatherDisplay:10.37,2013-10-31 12:04:00,
2013-10-31 08:09:00,58.1,56.7,29.86,SE,135,4.1,4.6,95,0.11, +RA,,0.41,WeatherDisplay:10.37,2013-10-31 12:09:00,
2013-10-31 08:14:00,58.3,56.9,29.85,WSW,248,5.6,5.6,95,0.10,-RA,,0.41,WeatherDisplay:10.37,2013-10-31 12:14:00,
2013-10-31 08:19:00,58.5,57.1,29.85,West,270,3.5,5.8,95,0.08,-RA,,0.41,WeatherDisplay:10.37,2013-10-31 12:19:00,
2013-10-31 08:24:00,58.6,57.2,29.85,SW,225,4.8,8.3,95,0.06,-RA,,0.41,WeatherDisplay:10.37,2013-10-31 12:24:00,
2013-10-31 08:29:00,58.8,57.4,29.85,South,180,3.5,5.8,95,0.05,-RA,,0.41,WeatherDisplay:10.37,2013-10-31 12:29:00,
2013-10-31 08:34:00,59.0,57.6,29.85,West,270,5.9,5.9,95,0.03,-RA,,0.42,WeatherDisplay:10.37,2013-10-31 12:34:00,
2013-10-31 08:39:00,59.0,57.6,29.84,West,270,6.3,9.2,95,0.03,-RA,,0.43,WeatherDisplay:10.37,2013-10-31 12:39:00,
2013-10-31 08:44:00,59.0,57.6,29.84,SW,225,6.4,9.4,95,0.03,-RA,,0.43,WeatherDisplay:10.37,2013-10-31 12:44:00,
2013-10-31 08:49:00,59.2,57.8,29.84,WSW,248,6.6,10.4,95,0.03,-RA,,0.44,WeatherDisplay:10.37,2013-10-31 12:49:00,
2013-10-31 08:54:00,59.2,57.8,29.85,WNW,292,6.2,8.1,95,0.04,-RA,,0.45,WeatherDisplay:10.37,2013-10-31 12:54:00,
2013-10-31 08:59:00,59.2,57.8,29.85,SE,135,8.2,10.4,95,0.04,-RA,,0.45,WeatherDisplay:10.37,2013-10-31 12:59:00,
2013-10-31 09:04:00,59.5,57.8,29.85,West,270,6.5,8.1,94,0.04,-RA,,0.45,WeatherDisplay:10.37,2013-10-31 13:04:00,
2013-10-31 09:09:00,59.5,57.8,29.85,West,270,6.1,6.9,94,0.04,-RA,,0.45,WeatherDisplay:10.37,2013-10-31 13:09:00,
2013-10-31 09:14:00,59.7,58.0,29.85,WSW,248,4.4,8.1,94,0.04,-RA,,0.45,WeatherDisplay:10.37,2013-10-31 13:14:00,
2013-10-31 09:19:00,59.9,58.2,29.85,SW,225,7.0,7.0,94,0.05,-RA,,0.46,WeatherDisplay:10.37,2013-10-31 13:19:00,
2013-10-31 09:24:00,59.9,58.2,29.85,WSW,248,6.3,6.9,94,0.05,-RA,,0.46,WeatherDisplay:10.37,2013-10-31 13:24:00,
2013-10-31 09:29:00,60.1,58.4,29.85,SW,225,6.1,9.9,94,0.05,-RA,,0.46,WeatherDisplay:10.37,2013-10-31 13:29:00,
2013-10-31 09:34:00,60.3,58.3,29.85,NNW,338,6.1,6.1,93,0.05,-RA,,0.46,WeatherDisplay:10.37,2013-10-31 13:34:00,
2013-10-31 09:39:00,60.3,58.3,29.84,ESE,112,7.2,7.8,93,0.03,-RA,,0.47,WeatherDisplay:10.37,2013-10-31 13:39:00,
2013-10-31 09:44:00,60.3,58.3,29.84,WSW,248,6.3,6.3,93,0.04,-RA,,0.47,WeatherDisplay:10.37,2013-10-31 13:44:00,
2013-10-31 09:49:00,60.6,58.6,29.84,WSW,248,6.2,6.2,93,0.03,-RA,,0.47,WeatherDisplay:10.37,2013-10-31 13:49:00,
2013-10-31 09:54:00,60.6,58.6,29.83,West,270,3.6,5.8,93,0.02,-RA,,0.47,WeatherDisplay:10.37,2013-10-31 13:54:00,
2013-10-31 09:59:00,60.8,58.5,29.83,WNW,292,6.4,10.4,92,0.02,-RA,,0.47,WeatherDisplay:10.37,2013-10-31 13:59:00,
2013-10-31 10:04:00,61.0,58.7,29.82,East,90,3.7,5.8,92,0.02,-RA,,0.47,WeatherDisplay:10.37,2013-10-31 14:04:00,
2013-10-31 10:09:00,61.0,58.7,29.82,WNW,292,7.4,7.8,92,0.02,-RA,,0.47,WeatherDisplay:10.37,2013-10-31 14:09:00,
2013-10-31 10:14:00,61.2,58.6,29.82,West,270,5.9,7.8,91,0.02,-RA,,0.47,WeatherDisplay:10.37,2013-10-31 14:14:00,
2013-10-31 10:19:00,61.2,58.6,29.82,SSE,158,6.5,8.1,91,0.01,-RA,,0.47,WeatherDisplay:10.37,2013-10-31 14:19:00,
2013-10-31 10:24:00,61.3,58.7,29.82,South,180,5.5,6.9,91,0.01,-RA,,0.47,WeatherDisplay:10.37,2013-10-31 14:24:00,
2013-10-31 10:29:00,61.7,58.7,29.81,SSW,202,5.3,8.1,90,0.01,-RA,,0.47,WeatherDisplay:10.37,2013-10-31 14:29:00,
2013-10-31 10:34:00,61.9,58.9,29.81,WSW,248,5.1,5.8,90,0.01,-RA,,0.47,WeatherDisplay:10.37,2013-10-31 14:34:00,
2013-10-31 10:39:00,62.1,58.8,29.81,SSE,158,7.9,9.4,89,0.01,-RA,,0.47,WeatherDisplay:10.37,2013-10-31 14:39:00,
2013-10-31 10:44:00,62.2,58.9,29.81,SW,225,5.5,6.9,89,0.00,-RA,,0.47,WeatherDisplay:10.37,2013-10-31 14:44:00,
2013-10-31 10:49:00,62.2,58.9,29.81,WSW,248,4.8,6.9,89,0.00,-RA,,0.47,WeatherDisplay:10.37,2013-10-31 14:49:00,
2013-10-31 10:54:00,62.2,58.6,29.81,SW,225,6.5,8.1,88,0.00,-RA,,0.47,WeatherDisplay:10.37,2013-10-31 14:54:00,
2013-10-31 10:59:00,62.2,58.9,29.81,SSW,202,6.8,9.4,89,0.00,-RA,,0.47,WeatherDisplay:10.37,2013-10-31 14:59:00,
2013-10-31 11:04:00,61.9,58.9,29.81,West,270,5.5,8.1,90,0.01,-RA,,0.48,WeatherDisplay:10.37,2013-10-31 15:04:00,
2013-10-31 11:09:00,61.9,58.9,29.81,SW,225,10.9,10.9,90,0.01,-RA,,0.48,WeatherDisplay:10.37,2013-10-31 15:09:00,
2013-10-31 11:14:00,61.7,59.0,29.81,West,270,5.6,10.4,91,0.02,-RA,,0.49,WeatherDisplay:10.37,2013-10-31 15:14:00,
2013-10-31 11:19:00,61.5,58.8,29.81,SSW,202,6.5,8.1,91,0.02,-RA,,0.49,WeatherDisplay:10.37,2013-10-31 15:19:00,
2013-10-31 11:24:00,61.7,59.0,29.81,West,270,4.3,6.9,91,0.02,-RA,,0.49,WeatherDisplay:10.37,2013-10-31 15:24:00,
2013-10-31 11:29:00,61.9,59.2,29.80,West,270,4.7,6.9,91,0.02,-RA,,0.49,WeatherDisplay:10.37,2013-10-31 15:29:00,
2013-10-31 11:34:00,62.2,59.2,29.80,WSW,248,4.3,6.9,90,0.02,-RA,,0.49,WeatherDisplay:10.37,2013-10-31 15:34:00,
2013-10-31 11:39:00,62.6,59.3,29.79,WNW,292,5.4,9.4,89,0.02,-RA,,0.49,WeatherDisplay:10.37,2013-10-31 15:39:00,
2013-10-31 11:44:00,63.3,59.7,29.79,SW,225,6.8,8.1,88,0.02,-RA,,0.49,WeatherDisplay:10.37,2013-10-31 15:44:00,
2013-10-31 11:49:00,63.9,60.0,29.79,West,270,5.0,7.3,87,0.02,-RA,,0.49,WeatherDisplay:10.37,2013-10-31 15:49:00,
2013-10-31 11:54:00,64.2,60.2,29.78,WNW,292,3.4,5.8,87,0.02,-RA,,0.49,WeatherDisplay:10.37,2013-10-31 15:54:00,
2013-10-31 11:59:00,64.6,60.0,29.78,West,270,4.3,8.3,85,0.02,-RA,,0.49,WeatherDisplay:10.37,2013-10-31 15:59:00,
2013-10-31 12:04:00,64.8,60.2,29.77,WSW,248,4.5,8.1,85,0.01,OVC,,0.49,WeatherDisplay:10.37,2013-10-31 16:04:00,
2013-10-31 12:09:00,65.3,60.0,29.77,West,270,5.7,8.3,83,0.01,OVC,,0.49,WeatherDisplay:10.37,2013-10-31 16:09:00,
2013-10-31 12:14:00,65.5,59.9,29.75,ESE,112,4.8,9.2,82,0.00,OVC,,0.49,WeatherDisplay:10.37,2013-10-31 16:14:00,
2013-10-31 12:19:00,65.7,59.7,29.75,SSW,202,8.6,8.6,81,0.00,OVC,,0.49,WeatherDisplay:10.37,2013-10-31 16:19:00,
2013-10-31 12:24:00,65.8,59.8,29.75,WSW,248,5.3,8.1,81,0.00,OVC,,0.49,WeatherDisplay:10.37,2013-10-31 16:24:00,
2013-10-31 12:29:00,65.8,59.5,29.74,ESE,112,4.3,8.1,80,0.00,OVC,,0.49,WeatherDisplay:10.37,2013-10-31 16:29:00,
2013-10-31 12:34:00,66.2,59.5,29.74,WSW,248,6.6,10.9,79,0.00,OVC,,0.49,WeatherDisplay:10.37,2013-10-31 16:34:00,
2013-10-31 12:39:00,66.7,59.3,29.73,North,360,10.1,15.0,77,0.00,OVC,,0.49,WeatherDisplay:10.37,2013-10-31 16:39:00,
2013-10-31 12:44:00,66.9,59.1,29.73,SSE,158,10.9,13.5,76,0.00,OVC,,0.49,WeatherDisplay:10.37,2013-10-31 16:44:00,
2013-10-31 12:49:00,67.5,59.3,29.73,West,270,4.9,10.4,75,0.00,OVC,,0.49,WeatherDisplay:10.37,2013-10-31 16:49:00,
2013-10-31 12:54:00,67.8,58.8,29.72,WSW,248,6.0,11.5,73,0.00,OVC,,0.49,WeatherDisplay:10.37,2013-10-31 16:54:00,
2013-10-31 12:59:00,68.2,58.4,29.72,South,180,6.8,15.0,71,0.00,OVC,,0.49,WeatherDisplay:10.37,2013-10-31 16:59:00,
2013-10-31 13:04:00,68.2,58.4,29.72,WSW,248,8.1,8.1,71,0.00,OVC,,0.49,WeatherDisplay:10.37,2013-10-31 17:04:00,
2013-10-31 13:09:00,68.2,58.0,29.72,WSW,248,8.5,15.0,70,0.00,OVC,,0.49,WeatherDisplay:10.37,2013-10-31 17:09:00,
2013-10-31 13:14:00,68.4,57.8,29.72,SW,225,9.0,10.4,69,0.00,OVC,,0.49,WeatherDisplay:10.37,2013-10-31 17:14:00,
2013-10-31 13:19:00,68.4,57.4,29.72,SE,135,9.3,12.7,68,0.00,OVC,,0.49,WeatherDisplay:10.37,2013-10-31 17:19:00,
2013-10-31 13:24:00,68.2,56.8,29.72,SW,225,10.0,13.8,67,0.00,OVC,,0.49,WeatherDisplay:10.37,2013-10-31 17:24:00,
2013-10-31 13:29:00,68.2,56.8,29.72,West,270,9.3,12.7,67,0.00,OVC,,0.49,WeatherDisplay:10.37,2013-10-31 17:29:00,
2013-10-31 13:34:00,68.0,57.0,29.72,West,270,8.5,13.8,68,0.00,OVC,,0.49,WeatherDisplay:10.37,2013-10-31 17:34:00,
2013-10-31 13:39:00,67.8,56.4,29.70,SSW,202,8.3,10.4,67,0.00,OVC,,0.49,WeatherDisplay:10.37,2013-10-31 17:39:00,
2013-10-31 13:44:00,67.8,56.4,29.70,NW,315,5.9,10.4,67,0.00,OVC,,0.49,WeatherDisplay:10.37,2013-10-31 17:44:00,
2013-10-31 13:49:00,67.8,56.4,29.70,SW,225,8.9,9.2,67,0.00,OVC,,0.49,WeatherDisplay:10.37,2013-10-31 17:49:00,
2013-10-31 13:54:00,68.0,56.6,29.71,West,270,5.3,11.5,67,0.00,OVC,,0.49,WeatherDisplay:10.37,2013-10-31 17:54:00,
2013-10-31 13:59:00,68.0,56.6,29.71,SW,225,7.6,11.5,67,0.00,OVC,,0.49,WeatherDisplay:10.37,2013-10-31 17:59:00,
2013-10-31 14:04:00,68.0,56.6,29.70,WNW,292,7.9,9.9,67,0.00,OVC,,0.49,WeatherDisplay:10.37,2013-10-31 18:04:00,
2013-10-31 14:09:00,68.0,56.6,29.70,WSW,248,4.4,6.9,67,0.00,OVC,,0.49,WeatherDisplay:10.37,2013-10-31 18:09:00,
2013-10-31 14:14:00,68.0,57.0,29.70,NW,315,6.0,9.2,68,0.00,OVC,,0.49,WeatherDisplay:10.37,2013-10-31 18:14:00,
2013-10-31 14:19:00,68.0,57.0,29.69,SW,225,5.1,6.9,68,0.00,OVC,,0.49,WeatherDisplay:10.37,2013-10-31 18:19:00,
2013-10-31 14:24:00,68.0,57.0,29.69,ESE,112,6.1,9.2,68,0.00,OVC,,0.49,WeatherDisplay:10.37,2013-10-31 18:24:00,
2013-10-31 14:29:00,68.0,57.0,29.69,SW,225,9.7,12.4,68,0.00,OVC,,0.49,WeatherDisplay:10.37,2013-10-31 18:29:00,
2013-10-31 14:34:00,68.0,57.0,29.69,SSW,202,5.9,6.8,68,0.00,OVC,,0.49,WeatherDisplay:10.37,2013-10-31 18:34:00,
2013-10-31 14:39:00,68.0,57.0,29.69,SSE,158,6.9,9.2,68,0.00,OVC,,0.49,WeatherDisplay:10.37,2013-10-31 18:39:00,
2013-10-31 14:44:00,67.8,56.9,29.69,SSE,158,8.4,9.2,68,0.00,OVC,,0.49,WeatherDisplay:10.37,2013-10-31 18:44:00,
2013-10-31 14:49:00,67.8,56.9,29.69,West,270,6.1,9.2,68,0.00,OVC,,0.49,WeatherDisplay:10.37,2013-10-31 18:49:00,
2013-10-31 14:54:00,67.6,57.1,29.69,SE,135,7.0,9.2,69,0.00,OVC,,0.49,WeatherDisplay:10.37,2013-10-31 18:54:00,
2013-10-31 14:59:00,67.3,56.8,29.69,SSW,202,9.1,10.4,69,0.00,OVC,,0.49,WeatherDisplay:10.37,2013-10-31 18:59:00,
2013-10-31 15:04:00,67.1,57.0,29.69,NW,315,6.5,10.9,70,0.00,OVC,,0.49,WeatherDisplay:10.37,2013-10-31 19:04:00,
2013-10-31 15:09:00,66.9,56.8,29.69,NE,45,5.6,11.5,70,0.00,OVC,,0.49,WeatherDisplay:10.37,2013-10-31 19:09:00,
2013-10-31 15:14:00,66.7,57.0,29.68,WNW,292,6.1,6.9,71,0.00,-RA,,0.49,WeatherDisplay:10.37,2013-10-31 19:14:00,
2013-10-31 15:19:00,66.7,56.6,29.68,WSW,248,7.1,11.5,70,0.00,-RA,,0.49,WeatherDisplay:10.37,2013-10-31 19:19:00,
2013-10-31 15:24:00,66.7,56.6,29.68,South,180,5.3,9.2,70,0.00,-RA,,0.49,WeatherDisplay:10.37,2013-10-31 19:24:00,
2013-10-31 15:29:00,66.6,56.9,29.69,West,270,6.5,11.5,71,0.00,-RA,,0.49,WeatherDisplay:10.37,2013-10-31 19:29:00,
2013-10-31 15:34:00,66.4,57.1,29.69,WSW,248,6.3,6.8,72,0.00,-RA,,0.49,WeatherDisplay:10.37,2013-10-31 19:34:00,
2013-10-31 15:39:00,66.2,56.9,29.68,West,270,6.8,6.9,72,0.00,-RA,,0.49,WeatherDisplay:10.37,2013-10-31 19:39:00,
2013-10-31 15:44:00,65.8,56.9,29.68,West,270,3.3,5.8,73,0.00,-RA,,0.49,WeatherDisplay:10.37,2013-10-31 19:44:00,
2013-10-31 15:49:00,65.8,56.9,29.68,West,270,5.8,5.8,73,0.00,-RA,,0.49,WeatherDisplay:10.37,2013-10-31 19:49:00,
2013-10-31 15:53:00,65.8,56.9,29.68,West,270,4.2,4.6,73,0.00,-RA,,0.49,WeatherDisplay:10.37,2013-10-31 19:53:00,
2013-10-31 15:58:00,65.3,56.8,29.68,WSW,248,6.7,8.1,74,0.00,-RA,,0.49,WeatherDisplay:10.37,2013-10-31 19:58:00,
2013-10-31 16:03:00,65.3,56.8,29.66,WSW,248,5.7,9.2,74,0.00,-RA,,0.49,WeatherDisplay:10.37,2013-10-31 20:03:00,
2013-10-31 16:08:00,65.3,56.8,29.66,SSW,202,4.7,5.8,74,0.00,-RA,,0.49,WeatherDisplay:10.37,2013-10-31 20:08:00,
2013-10-31 16:13:00,65.3,56.8,29.66,ESE,112,3.0,5.8,74,0.00,-RA,,0.49,WeatherDisplay:10.37,2013-10-31 20:13:00,
2013-10-31 16:18:00,65.3,56.4,29.66,North,360,4.9,8.1,73,0.00,-RA,,0.49,WeatherDisplay:10.37,2013-10-31 20:18:00,
2013-10-31 16:23:00,65.3,56.4,29.66,SW,225,4.1,5.8,73,0.00,-RA,,0.49,WeatherDisplay:10.37,2013-10-31 20:23:00,
2013-10-31 16:28:00,65.3,56.4,29.66,West,270,7.4,8.1,73,0.00,-RA,,0.49,WeatherDisplay:10.37,2013-10-31 20:28:00,
2013-10-31 16:33:00,65.5,56.2,29.66,NE,45,4.8,10.4,72,0.00,-RA,,0.49,WeatherDisplay:10.37,2013-10-31 20:33:00,
2013-10-31 16:38:00,65.5,56.2,29.66,West,270,8.2,11.9,72,0.00,-RA,,0.49,WeatherDisplay:10.37,2013-10-31 20:38:00,
2013-10-31 16:43:00,65.7,56.4,29.66,SE,135,5.3,8.1,72,0.00,-RA,,0.49,WeatherDisplay:10.37,2013-10-31 20:43:00,
2013-10-31 16:48:00,65.7,56.4,29.66,SSW,202,6.3,6.9,72,0.00,-RA,,0.49,WeatherDisplay:10.37,2013-10-31 20:48:00,
2013-10-31 16:53:00,65.7,56.4,29.65,WNW,292,4.9,5.8,72,0.00,-RA,,0.49,WeatherDisplay:10.37,2013-10-31 20:53:00,
2013-10-31 16:58:00,65.7,56.4,29.65,ENE,68,7.2,9.4,72,0.00,-RA,,0.49,WeatherDisplay:10.37,2013-10-31 20:58:00,
2013-10-31 17:03:00,65.7,56.4,29.65,West,270,4.9,10.4,72,0.00,OVC,,0.49,WeatherDisplay:10.37,2013-10-31 21:03:00,
2013-10-31 17:08:00,65.7,55.6,29.65,West,270,6.1,7.8,70,0.00,OVC,,0.49,WeatherDisplay:10.37,2013-10-31 21:08:00,
2013-10-31 17:13:00,65.8,55.7,29.65,West,270,6.2,11.5,70,0.00,OVC,,0.49,WeatherDisplay:10.37,2013-10-31 21:13:00,
2013-10-31 17:18:00,65.7,55.6,29.65,West,270,7.9,11.5,70,0.00,OVC,,0.49,WeatherDisplay:10.37,2013-10-31 21:18:00,
2013-10-31 17:23:00,65.7,55.6,29.65,SSW,202,7.7,7.8,70,0.00,OVC,,0.49,WeatherDisplay:10.37,2013-10-31 21:23:00,
2013-10-31 17:28:00,65.7,55.6,29.64,SW,225,9.0,13.8,70,0.00,OVC,,0.49,WeatherDisplay:10.37,2013-10-31 21:28:00,
2013-10-31 17:33:00,65.3,55.3,29.64,WSW,248,7.1,11.5,70,0.00,OVC,,0.49,WeatherDisplay:10.37,2013-10-31 21:33:00,
2013-10-31 17:38:00,64.9,54.5,29.63,SSW,202,6.4,13.8,69,0.00,OVC,,0.49,WeatherDisplay:10.37,2013-10-31 21:38:00,
2013-10-31 17:43:00,64.8,53.6,29.63,SSE,158,15.1,18.4,67,0.00,OVC,,0.49,WeatherDisplay:10.37,2013-10-31 21:43:00,
2013-10-31 17:48:00,64.8,54.0,29.63,SSW,202,7.2,10.4,68,0.00,OVC,,0.49,WeatherDisplay:10.37,2013-10-31 21:48:00,
2013-10-31 17:53:00,64.2,54.2,29.62,East,90,9.7,12.7,70,0.00,OVC,,0.49,WeatherDisplay:10.37,2013-10-31 21:53:00,
2013-10-31 17:58:00,63.7,54.5,29.62,WSW,248,7.9,10.4,72,0.00,OVC,,0.49,WeatherDisplay:10.37,2013-10-31 21:58:00,
2013-10-31 18:03:00,63.1,54.7,29.62,SSW,202,5.2,6.9,74,0.00,OVC,,0.49,WeatherDisplay:10.37,2013-10-31 22:03:00,
2013-10-31 18:08:00,62.6,54.9,29.62,West,270,8.3,10.4,76,0.00,OVC,,0.49,WeatherDisplay:10.37,2013-10-31 22:08:00,
2013-10-31 18:13:00,62.1,55.2,29.62,WSW,248,5.9,8.1,78,0.01,-RA,,0.50,WeatherDisplay:10.37,2013-10-31 22:13:00,
2013-10-31 18:18:00,61.5,54.9,29.61,West,270,3.0,4.6,79,0.02,-RA,,0.51,WeatherDisplay:10.37,2013-10-31 22:18:00,
2013-10-31 18:23:00,61.2,55.0,29.61,NW,315,4.7,5.8,80,0.02,-RA,,0.51,WeatherDisplay:10.37,2013-10-31 22:23:00,
2013-10-31 18:28:00,61.0,55.1,29.60,West,270,3.6,4.6,81,0.02,-RA,,0.51,WeatherDisplay:10.37,2013-10-31 22:28:00,
2013-10-31 18:33:00,60.8,54.9,29.60,West,270,3.8,5.8,81,0.02,-RA,,0.51,WeatherDisplay:10.37,2013-10-31 22:33:00,
2013-10-31 18:38:00,60.4,54.9,29.60,SSW,202,2.6,2.7,82,0.02,-RA,,0.51,WeatherDisplay:10.37,2013-10-31 22:38:00,
2013-10-31 18:43:00,60.3,54.8,29.59,South,180,3.0,4.6,82,0.02,-RA,,0.51,WeatherDisplay:10.37,2013-10-31 22:43:00,
2013-10-31 18:48:00,60.1,54.9,29.59,SSE,158,3.2,5.8,83,0.03,-RA,,0.52,WeatherDisplay:10.37,2013-10-31 22:48:00,
2013-10-31 18:53:00,59.9,54.7,29.59,ESE,112,2.2,2.3,83,0.03,-RA,,0.52,WeatherDisplay:10.37,2013-10-31 22:53:00,
2013-10-31 18:58:00,59.9,55.1,29.59,West,270,2.3,2.7,84,0.03,-RA,,0.52,WeatherDisplay:10.37,2013-10-31 22:58:00,
2013-10-31 19:03:00,59.7,54.9,29.58,SSW,202,3.3,3.7,84,0.03,-RA,,0.52,WeatherDisplay:10.37,2013-10-31 23:03:00,
2013-10-31 19:08:00,59.9,55.1,29.58,SSW,202,4.8,5.8,84,0.03,-RA,,0.52,WeatherDisplay:10.37,2013-10-31 23:08:00,
2013-10-31 19:13:00,59.9,55.1,29.58,West,270,3.9,4.6,84,0.02,-RA,,0.52,WeatherDisplay:10.37,2013-10-31 23:13:00,
2013-10-31 19:18:00,59.9,55.1,29.57,WSW,248,5.0,5.8,84,0.02,-RA,,0.53,WeatherDisplay:10.37,2013-10-31 23:18:00,
2013-10-31 19:23:00,59.9,55.1,29.57,WSW,248,3.7,5.8,84,0.02,-RA,,0.53,WeatherDisplay:10.37,2013-10-31 23:23:00,
2013-10-31 19:28:00,59.9,55.4,29.57,South,180,3.6,5.3,85,0.02,-RA,,0.53,WeatherDisplay:10.37,2013-10-31 23:28:00,
2013-10-31 19:33:00,60.1,55.6,29.57,West,270,2.9,6.9,85,0.02,-RA,,0.53,WeatherDisplay:10.37,2013-10-31 23:33:00,
2013-10-31 19:38:00,59.9,55.4,29.56,ESE,112,5.4,10.9,85,0.02,-RA,,0.54,WeatherDisplay:10.37,2013-10-31 23:38:00,
2013-10-31 19:43:00,60.1,55.2,29.56,West,270,7.4,10.4,84,0.03,-RA,,0.54,WeatherDisplay:10.37,2013-10-31 23:43:00,
2013-10-31 19:48:00,60.3,55.1,29.56,WNW,292,5.3,5.8,83,0.02,-RA,,0.54,WeatherDisplay:10.37,2013-10-31 23:48:00,
2013-10-31 19:53:00,60.1,54.9,29.55,West,270,5.9,8.1,83,0.02,-RA,,0.55,WeatherDisplay:10.37,2013-10-31 23:53:00,
2013-10-31 19:58:00,59.9,54.7,29.55,SW,225,8.5,8.5,83,0.03,-RA,,0.55,WeatherDisplay:10.37,2013-10-31 23:58:00,
2013-10-31 20:03:00,59.7,54.5,29.54,SW,225,6.7,8.1,83,0.03,-RA,,0.55,WeatherDisplay:10.37,2013-11-01 00:03:00,
2013-10-31 20:08:00,59.4,54.6,29.54,WSW,248,6.0,6.9,84,0.04,-RA,,0.56,WeatherDisplay:10.37,2013-11-01 00:08:00,
2013-10-31 20:13:00,59.4,54.6,29.54,SW,225,3.2,6.9,84,0.04,-RA,,0.56,WeatherDisplay:10.37,2013-11-01 00:13:00,
2013-10-31 20:18:00,59.4,54.9,29.52,WNW,292,4.9,6.9,85,0.03,-RA,,0.56,WeatherDisplay:10.37,2013-11-01 00:18:00,
2013-10-31 20:23:00,59.4,54.9,29.52,SSE,158,4.4,10.4,85,0.04,-RA,,0.57,WeatherDisplay:10.37,2013-11-01 00:23:00,
2013-10-31 20:28:00,59.4,54.9,29.51,WSW,248,4.7,5.8,85,0.04,-RA,,0.57,WeatherDisplay:10.37,2013-11-01 00:28:00,
2013-10-31 20:33:00,59.4,54.9,29.51,South,180,5.0,5.8,85,0.05,-RA,,0.58,WeatherDisplay:10.37,2013-11-01 00:33:00,
2013-10-31 20:38:00,59.4,55.2,29.51,WSW,248,4.8,6.9,86,0.06,-RA,,0.59,WeatherDisplay:10.37,2013-11-01 00:38:00,
2013-10-31 20:43:00,59.4,55.2,29.50,NW,315,6.0,6.9,86,0.05,-RA,,0.59,WeatherDisplay:10.37,2013-11-01 00:43:00,
2013-10-31 20:48:00,59.4,55.2,29.50,SW,225,5.1,8.1,86,0.06,-RA,,0.60,WeatherDisplay:10.37,2013-11-01 00:48:00,
2013-10-31 20:53:00,59.4,55.2,29.50,South,180,6.9,8.1,86,0.07,-RA,,0.61,WeatherDisplay:10.37,2013-11-01 00:53:00,
2013-10-31 20:58:00,59.4,55.5,29.50,NW,315,5.1,5.8,87,0.07,-RA,,0.62,WeatherDisplay:10.37,2013-11-01 00:58:00,
2013-10-31 21:03:00,59.4,55.5,29.48,West,270,5.1,6.9,87,0.08,RA,,0.63,WeatherDisplay:10.37,2013-11-01 01:03:00,
2013-10-31 21:08:00,59.4,55.5,29.48,SSW,202,5.3,6.9,87,0.07,RA,,0.64,WeatherDisplay:10.37,2013-11-01 01:08:00,
2013-10-31 21:13:00,59.4,55.5,29.48,SSW,202,7.1,11.5,87,0.09,RA,,0.65,WeatherDisplay:10.37,2013-11-01 01:13:00,
2013-10-31 21:18:00,59.4,55.5,29.47,South,180,4.0,5.8,87,0.10,RA,,0.66,WeatherDisplay:10.37,2013-11-01 01:18:00,
2013-10-31 21:23:00,59.4,55.8,29.47,East,90,8.2,12.7,88,0.10,RA,,0.67,WeatherDisplay:10.37,2013-11-01 01:23:00,
2013-10-31 21:28:00,59.7,55.8,29.46,West,270,7.0,11.5,87,0.11,RA,,0.68,WeatherDisplay:10.37,2013-11-01 01:28:00,
2013-10-31 21:33:00,59.5,55.6,29.46,SW,225,6.1,8.1,87,0.11,RA,,0.69,WeatherDisplay:10.37,2013-11-01 01:33:00,
2013-10-31 21:38:00,59.5,55.6,29.45,ESE,112,7.9,15.0,87,0.11,RA,,0.71,WeatherDisplay:10.37,2013-11-01 01:38:00,
2013-10-31 21:43:00,59.7,55.8,29.45,SSW,202,7.7,9.9,87,0.13, +RA,,0.72,WeatherDisplay:10.37,2013-11-01 01:43:00,
2013-10-31 21:48:00,59.5,55.6,29.45,NW,315,5.3,9.4,87,0.12, +RA,,0.72,WeatherDisplay:10.37,2013-11-01 01:48:00,
2013-10-31 21:53:00,59.7,55.8,29.45,SSE,158,8.4,8.4,87,0.12,RA,,0.73,WeatherDisplay:10.37,2013-11-01 01:53:00,
2013-10-31 21:58:00,59.5,55.9,29.45,WNW,292,5.6,14.0,88,0.12,RA,,0.75,WeatherDisplay:10.37,2013-11-01 01:58:00,
2013-10-31 22:03:00,59.5,55.9,29.44,West,270,4.8,6.9,88,0.12,RA,,0.75,WeatherDisplay:10.37,2013-11-01 02:03:00,
2013-10-31 22:08:00,59.7,56.1,29.44,West,270,5.9,10.4,88,0.14,RA,,0.77,WeatherDisplay:10.37,2013-11-01 02:08:00,
2013-10-31 22:13:00,59.5,55.9,29.44,West,270,6.0,9.2,88,0.13, +RA,,0.78,WeatherDisplay:10.37,2013-11-01 02:13:00,
2013-10-31 22:18:00,59.7,56.1,29.43,WSW,248,7.5,10.4,88,0.13, +RA,,0.79,WeatherDisplay:10.37,2013-11-01 02:18:00,
2013-10-31 22:23:00,59.9,56.0,29.43,SE,135,7.6,10.4,87,0.13, +RA,,0.81,WeatherDisplay:10.37,2013-11-01 02:23:00,
2013-10-31 22:28:00,59.9,56.0,29.41,WSW,248,5.2,10.4,87,0.14, +RA,,0.82,WeatherDisplay:10.37,2013-11-01 02:28:00,
2013-10-31 22:33:00,59.9,56.0,29.41,SE,135,8.3,8.3,87,0.13, +RA,,0.82,WeatherDisplay:10.37,2013-11-01 02:33:00,
2013-10-31 22:38:00,60.3,56.4,29.41,SSE,158,7.0,11.5,87,0.14, +RA,,0.84,WeatherDisplay:10.37,2013-11-01 02:38:00,
2013-10-31 22:43:00,60.3,56.4,29.41,SSE,158,4.2,16.1,87,0.12, +RA,,0.85,WeatherDisplay:10.37,2013-11-01 02:43:00,
2013-10-31 22:48:00,60.3,56.4,29.41,SE,135,7.8,16.1,87,0.13, +RA,,0.85,WeatherDisplay:10.37,2013-11-01 02:48:00,
2013-10-31 22:53:00,60.3,56.4,29.40,West,270,6.9,8.1,87,0.13, +RA,,0.86,WeatherDisplay:10.37,2013-11-01 02:53:00,
2013-10-31 22:58:00,60.3,56.4,29.40,ESE,112,10.0,15.0,87,0.13, +RA,,0.87,WeatherDisplay:10.37,2013-11-01 02:58:00,
2013-10-31 23:03:00,60.1,56.2,29.39,ESE,112,8.3,10.4,87,0.12,RA,,0.87,WeatherDisplay:10.37,2013-11-01 03:03:00,
2013-10-31 23:08:00,60.4,56.2,29.39,SSW,202,6.9,8.1,86,0.10,OVC,,0.87,WeatherDisplay:10.37,2013-11-01 03:08:00,
2013-10-31 23:13:00,60.6,56.4,29.39,West,270,10.3,18.4,86,0.09,OVC,,0.87,WeatherDisplay:10.37,2013-11-01 03:13:00,
2013-10-31 23:18:00,60.6,56.4,29.38,SSE,158,8.7,10.4,86,0.08,OVC,,0.87,WeatherDisplay:10.37,2013-11-01 03:18:00,
2013-10-31 23:23:00,61.0,56.1,29.38,ESE,112,8.3,10.9,84,0.07,OVC,,0.87,WeatherDisplay:10.37,2013-11-01 03:23:00,
2013-10-31 23:28:00,61.0,56.1,29.37,WSW,248,8.1,10.4,84,0.05,OVC,,0.87,WeatherDisplay:10.37,2013-11-01 03:28:00,
2013-10-31 23:33:00,61.3,56.4,29.37,ESE,112,11.4,11.5,84,0.06,RA,,0.88,WeatherDisplay:10.37,2013-11-01 03:33:00,
2013-10-31 23:38:00,61.2,56.3,29.37,West,270,9.0,11.5,84,0.04,RA,,0.88,WeatherDisplay:10.37,2013-11-01 03:38:00,
2013-10-31 23:43:00,61.2,56.3,29.37,SW,225,6.6,14.5,84,0.04,OVC,,0.88,WeatherDisplay:10.37,2013-11-01 03:43:00,
2013-10-31 23:48:00,61.2,56.3,29.37,SE,135,9.7,12.7,84,0.03,OVC,,0.88,WeatherDisplay:10.37,2013-11-01 03:48:00,
2013-10-31 23:53:00,61.0,56.5,29.35,SSW,202,10.5,11.5,85,0.03,RA,,0.89,WeatherDisplay:10.37,2013-11-01 03:53:00,
2013-10-31 23:58:00,61.0,56.5,29.35,SSE,158,8.8,12.7,85,0.02,RA,,0.89,WeatherDisplay:10.37,2013-11-01 03:58:00,